Watkins, CO

3:18 AM MDT on August 21, 2014 (GMT -0600)
Denver | Change Station
CLOSE
Current Station
Airport
Location: Denver,
Elevation: 5430 ft
Nearby Weather Stations

Elev 5430 ft 39.85 °N, 104.66 °W | Updated 25 minutes ago

Mostly Cloudy
Mostly Cloudy
63 °F
Feels Like 63 °F
N
6
Wind Variable Wind from WSW

Today
High -- | Low -- °F
--% Chance of Precip.
Yesterday
High -- | Low -- °F
Precip. -- in
6:15 AM 7:45 PM
Waning Crescent, 15% visible
Pressure 29.81 in
Visibility 10.0 miles
Clouds Scattered Clouds 8000 ft
Mostly Cloudy 13000 ft
Dew Point 57 °F
Humidity 81%
Rainfall 0.07 in
Snow Depth Not available.
UV 0 out of 12
Pollen 9.60 out of 12
Air Quality Not available.
Flu Activity Not available.
METAR KDEN 210853Z 25005KT 10SM SCT080 BKN130 17/14 A3005 RMK AO2 SLP094 60007 T01720139 50005 $

More Conditions Fewer Conditions

Pressure 29.81 in
Visibility 10.0 miles
Clouds Scattered Clouds 8000 ft
Mostly Cloudy 13000 ft
Dew Point 57 °F
Humidity 81%
Rainfall 0.07 in
Snow Depth Not available.
UV 0 out of 12
Pollen 9.60 out of 12
Air Quality Not available.
Flu Activity Not available.
METAR KDEN 210853Z 25005KT 10SM SCT080 BKN130 17/14 A3005 RMK AO2 SLP094 60007 T01720139 50005 $

More Conditions Fewer Conditions

10-Day Weather Forecast

Almanac

Astronomy

Aug. 21, 2014 Rise Set
Actual Time 6:15 AM MDT 7:45 PM MDT
Civil Twilight 5:47 AM MDT 8:14 PM MDT
Nautical Twilight 5:13 AM MDT 8:48 PM MDT
Astronomical Twilight 4:36 AM MDT 9:24 PM MDT
Moon 2:48 AM MDT 5:16 PM MDT
Length of Visible Light 14h 26m
Length of Day
13h 30m
Tomorrow will be 2m 23s shorter.
Waning Crescent, 15% of the Moon is Illuminated
Today
Waning Crescent
Aug 25
New
Sep 2
First Quarter
Sep 8
Full
Sep 15
Last Quarter

Today's Extremes

State Highs State Lows

Community

WunderPhotos

Upload Photos

1,745,864 photos uploaded!

Nearby

Snow Depth

Station Depth Elevation
Niwot 0 in 9910 ft
Echo Lake 0 in 10600 ft
University Camp 0 in 10300 ft
Copeland Lake 0 in 8600 ft
Wild Basin 0 in 9560 ft

Earthquake Activity

City Distance Mag. Time & Date
No recent earthquake activity has been reported nearby.
Minimum magnitude displayed is 2.5.

Coastal Water Temperatures

Place Temperature
No Stations Reporting

Nearby Weather Stations